Flight Track Log - Related Links

Times and Time Zones

All times are in EDT time to prevent confusion due to time zone crossing. See the ASQ5355 flight status page for this flight to view local times or setup timezone preferences in your user account.

Time Position Orientation Groundspeed Altitude Reporting Facility
EDT Latitude Longitude Course Direction KTS MPH feet Rate Location/Type
Fri 05:44:53 PM 33.6494 -84.4681 339° North 393 452 2,500  Level Atlanta Center
Fri 05:45:24 PM 33.6667 -84.5000 303° West 221 254 3,500 2,400 Climbing Atlanta TRACON
Fri 05:46:18 PM 33.6833 -84.5667 287° West 256 295 5,900 2,577 Climbing Atlanta TRACON
Fri 05:47:53 PM 33.7953 -84.5839 353° North 280 322 9,900 2,052 Climbing Atlanta Center
Fri 05:48:53 PM 33.8789 -84.5392 24° Northeast 303 349 11,200 1,800 Climbing Atlanta Center
Fri 05:49:53 PM 33.9792 -84.4722 29° Northeast 344 396 13,500 2,150 Climbing Atlanta Center
Fri 05:50:00 PM 33.9639 -84.2805 339° North  Level FlightAware Approximate
Fri 05:50:53 PM 34.0711 -84.4475 13° North 344 396 15,500  Level Atlanta Center
Fri 05:51:53 PM 34.1756 -84.4231 11° North 368 423 17,400 1,750 Climbing Atlanta Center
Fri 05:52:53 PM 34.2822 -84.3933 13° North 386 444 19,000 800 Climbing Atlanta Center
Fri 05:53:53 PM 34.3825 -84.3686 12° North 391 450 19,000  Level Atlanta Center
Fri 05:54:53 PM 34.4994 -84.3386 12° North 412 474 19,000  Level Atlanta Center
Fri 05:55:53 PM 34.6164 -84.3089 12° North 417 480 19,000  Level Atlanta Center
Fri 05:56:53 PM 34.7311 -84.2764 13° North 423 487 19,000  Level Atlanta Center
Fri 05:57:53 PM 34.8481 -84.2489 11° North 423 487 19,000 -300 Level Atlanta Center
Fri 05:58:53 PM 34.9628 -84.2186 12° North 428 493 18,400 -950 Descending Atlanta Center
Fri 05:59:53 PM 35.0736 -84.1911 11° North 418 481 17,100 -700 Descending Atlanta Center
Fri 06:00:53 PM 35.1842 -84.1608 13° North 411 473 17,000 -600 Descending Atlanta Center
Fri 06:01:53 PM 35.2947 -84.1328 12° North 406 467 15,900 -1,600 Descending Atlanta Center
Fri 06:02:53 PM 35.4011 -84.1025 13° North 401 461 13,800 -2,150 Descending Atlanta Center
Fri 06:03:53 PM 35.5056 -84.0769 11° North 390 449 11,600 -1,500 Descending Atlanta Center
Fri 06:04:53 PM 35.5972 -84.0542 11° North 362 417 10,800 -1,100 Descending Atlanta Center
Fri 06:05:53 PM 35.6744 -84.0336 12° North 319 367 9,400 -1,800 Descending Atlanta Center
Fri 06:06:53 PM 35.7308 -83.9697 43° Northeast 273 314 7,200 -2,250 Descending Atlanta Center
Fri 06:07:53 PM 35.7828 -83.8981 48° Northeast 268 308 4,900 -1,750 Descending Atlanta Center
Fri 06:08:53 PM 35.8392 -83.8772 17° North 253 291 3,700 -1,250 Descending Atlanta Center
Fri 06:09:53 PM 35.8767 -83.9158 320° Northwest 177 204 2,400 -950 Descending Atlanta Center
Fri 06:10:53 PM 35.8475 -83.9567 229° Southwest 84 97 1,800 -700 Descending Atlanta Center
Fri 06:11:53 PM 35.8183 -83.9900 223° Southwest 103 119 1,000 -800 Descending Atlanta Center
Fri 06:13:00 PM 35.8110 -83.9940 225° Southwest  Level Estimated
Fri 06:20:00 PM 35.8110 -83.9940 225° Southwest  Level Estimated

Login

Don't have an account? Register now (free) for customized features, flight alerts, and more!